Moab, UT

1:01 AM MDT op 21 oktober 2014 (GMT -0600)
Canon Vista | Change Station
CLOSE
Current Station
Persoonlijk weerstation
Location: Moab, UT
Geometrische hoogte: 4183 ft
Nabije weerstations

Hoogte 4183 ft 38.56 °N, 109.53 °W | Updated 5 seconds ago

Gedeeltelijk bewolkt
Gedeeltelijk bewolkt
69.2 °F
Voelt als 69.2 °F
N
3.0
Wind Variabel Wind van zuid
Gusts 0.0 mijl/u

Vandaag
Hoog -- | Laag -- °F
--% Kans op neerslag
Gisteren
Hoog -- | Laag -- °F
Precip. -- inches
7:33 AM 6:31 PM
Afnemende halvemaan, 7% visible
Druk 29.88 inches
Zicht 10.0 mijlen
Wolken Merendeels bewolkt 9500 ft
Geheel bewolkt 12000 ft
Dauwpunt 44 °F
Vochtigheid 40%
Neerslag 0.00 inches
Dikte sneeuw Niet beschikbaar.
UV 0 van de 12
Pollen 1.80 van de 12
Luchtkwaliteit Niet beschikbaar.
Flu Activity Sporadic
METAR KCNY 210653Z AUTO 00000KT 10SM BKN095 OVC120 13/03 A3000 RMK AO2 SLP116 T01330033 402500089

More Conditions Fewer Conditions

Druk 29.88 inches
Zicht 10.0 mijlen
Wolken Merendeels bewolkt 9500 ft
Geheel bewolkt 12000 ft
Dauwpunt 44 °F
Vochtigheid 40%
Neerslag 0.00 inches
Dikte sneeuw Niet beschikbaar.
UV 0 van de 12
Pollen 1.80 van de 12
Luchtkwaliteit Niet beschikbaar.
Flu Activity Sporadic
METAR KCNY 210653Z AUTO 00000KT 10SM BKN095 OVC120 13/03 A3000 RMK AO2 SLP116 T01330033 402500089

More Conditions Fewer Conditions

10-Day Weather Forecast

Almanac

Astronomie

Oct. 21, 2014 Opkomst Ondergang
Werkelijke tijd 7:33 AM MDT 6:31 PM MDT
Burgerlijke schemering 7:06 AM MDT 6:58 PM MDT
Nautische schemering 6:35 AM MDT 7:29 PM MDT
Astronomische schemering 6:04 AM MDT 7:59 PM MDT
Maan 5:22 AM MDT 5:25 PM MDT
Golflengte van het zichtbare licht 11h 52m
Daglengte
10h 58m
Tomorrow will be 2m 21s shorter.
Afnemende halvemaan, 7% of the Moon is Illuminated
Vandaag
Afnemende halvemaan
oktober 23
Nieuw
oktober 30
Eerste kwartier
nov 6
Volle maan
nov 14
Laatste kwartier

Extremen vandaag

State Highs State Lows

Community

WunderPhotos

Upload Photos

1,763,619 foto’s ge-upload!

Nearby

Dikte sneeuw

Station Depth Geometrische hoogte
Lasal Mountain 0 in 9850 ft
Camp Jackson 1 in 8600 ft
Black Flat-U.M. Creek 0 in 9400 ft
Red Pine Ridge 0 in 9200 ft
Indian Canyon 0 in 9100 ft

Aardbevingen

Stad Distance Mag. Time & Date
No recent earthquake activity has been reported nearby.
Minimum magnitude displayed is 2.5.

Watertemperatuur langs de kust

Plaats Temperatuur
Geen meldingen van stations

Nabije weerstations